createdAt,value
2019-05-26T00:01:53.757Z,6.77
2019-05-26T00:04:25.651Z,8.87
2019-05-26T00:06:56.688Z,7.53
2019-05-26T00:09:28.054Z,7.93
2019-05-26T00:11:59.084Z,10.40
2019-05-26T00:14:30.056Z,11.18
2019-05-26T00:17:02.408Z,13.25
2019-05-26T00:19:33.930Z,12.60
2019-05-26T00:22:05.010Z,9.07
2019-05-26T00:24:36.352Z,7.90
2019-05-26T00:27:07.430Z,8.50
2019-05-26T00:29:38.941Z,10.20
2019-05-26T00:32:09.896Z,11.50
2019-05-26T00:34:40.885Z,10.60
2019-05-26T00:37:12.276Z,7.17
2019-05-26T00:39:43.566Z,9.80
2019-05-26T00:42:14.794Z,5.67
2019-05-26T00:44:45.750Z,8.37
2019-05-26T00:47:16.982Z,9.50
2019-05-26T00:49:47.943Z,6.63
2019-05-26T00:52:19.253Z,8.47
2019-05-26T00:54:50.599Z,10.13
2019-05-26T00:57:21.741Z,7.57
2019-05-26T00:59:52.804Z,12.50
2019-05-26T01:02:24.070Z,6.40
2019-05-26T01:04:55.285Z,7.83
2019-05-26T01:07:26.964Z,12.07
2019-05-26T01:09:57.901Z,5.63
2019-05-26T01:12:29.363Z,7.07
2019-05-26T01:15:00.316Z,6.97
2019-05-26T01:17:31.275Z,7.53
2019-05-26T01:20:02.298Z,6.83
2019-05-26T01:22:33.311Z,9.03
2019-05-26T01:25:04.560Z,8.78
2019-05-26T01:27:35.942Z,6.50
2019-05-26T01:30:08.090Z,9.13
2019-05-26T01:32:39.157Z,6.65
2019-05-26T01:35:10.512Z,7.10
2019-05-26T01:37:41.890Z,8.33
2019-05-26T01:40:12.949Z,7.57
2019-05-26T01:42:43.907Z,8.20
2019-05-26T01:45:14.929Z,6.17
2019-05-26T01:47:45.910Z,8.63
2019-05-26T01:50:16.886Z,5.80
2019-05-26T01:52:48.352Z,5.33
2019-05-26T01:55:19.876Z,12.28
2019-05-26T01:57:50.870Z,4.17
2019-05-26T02:00:22.989Z,10.97
2019-05-26T02:02:54.080Z,5.73
2019-05-26T02:05:25.129Z,5.37
2019-05-26T02:07:56.086Z,5.70
2019-05-26T02:10:28.180Z,4.80
2019-05-26T02:12:59.482Z,5.60
2019-05-26T02:15:30.893Z,3.80
2019-05-26T02:18:02.449Z,3.63
2019-05-26T02:20:33.660Z,7.20
2019-05-26T02:23:04.713Z,5.00
2019-05-26T02:25:35.701Z,3.83
2019-05-26T02:28:06.919Z,6.75
2019-05-26T02:30:38.841Z,7.87
2019-05-26T02:33:10.092Z,3.87
2019-05-26T02:35:41.131Z,5.87
2019-05-26T02:38:12.179Z,4.47
2019-05-26T02:40:43.526Z,6.10
2019-05-26T02:43:14.592Z,5.53
2019-05-26T02:45:45.561Z,5.00
2019-05-26T02:48:16.723Z,4.23
2019-05-26T02:50:47.935Z,3.93
2019-05-26T02:53:24.301Z,5.77
2019-05-26T02:55:51.979Z,6.80
2019-05-26T02:58:23.110Z,7.10
2019-05-26T03:00:54.269Z,5.97
2019-05-26T03:03:25.786Z,5.93
2019-05-26T03:05:56.854Z,7.17
2019-05-26T03:08:31.699Z,5.87
2019-05-26T03:11:03.422Z,4.83
2019-05-26T03:13:36.492Z,6.43
2019-05-26T03:16:08.158Z,4.40
2019-05-26T03:18:40.200Z,5.03
2019-05-26T03:21:11.704Z,4.93
2019-05-26T03:23:42.883Z,6.13
2019-05-26T03:26:14.906Z,7.60
2019-05-26T03:28:46.103Z,5.73
2019-05-26T03:31:17.121Z,4.30
2019-05-26T03:33:48.688Z,6.23
2019-05-26T03:36:19.674Z,5.73
2019-05-26T03:38:50.645Z,5.13
2019-05-26T03:41:21.704Z,4.30
2019-05-26T03:43:53.043Z,5.33
2019-05-26T03:46:24.010Z,8.60
2019-05-26T03:48:55.041Z,3.57
2019-05-26T03:51:26.424Z,5.03
2019-05-26T03:53:57.424Z,4.97
2019-05-26T03:56:28.671Z,5.83
2019-05-26T03:58:59.990Z,5.23
2019-05-26T04:01:31.264Z,5.97
2019-05-26T04:04:02.315Z,4.43
2019-05-26T04:06:33.341Z,6.47
2019-05-26T04:09:06.372Z,9.13
2019-05-26T04:11:37.370Z,4.40
2019-05-26T04:14:08.290Z,5.83
2019-05-26T04:16:39.824Z,4.80
2019-05-26T04:19:11.630Z,4.12
2019-05-26T04:21:42.812Z,5.83
2019-05-26T04:24:14.035Z,6.53
2019-05-26T04:26:45.036Z,4.28
2019-05-26T04:29:16.341Z,6.83
2019-05-26T04:31:47.356Z,6.85
2019-05-26T04:34:18.812Z,5.27
2019-05-26T04:36:50.156Z,3.57
2019-05-26T04:39:21.096Z,3.33
2019-05-26T04:41:52.166Z,3.67
2019-05-26T04:44:23.161Z,6.53
2019-05-26T04:46:54.147Z,7.33
2019-05-26T04:49:25.518Z,7.90
2019-05-26T04:51:56.480Z,3.63
2019-05-26T04:54:27.453Z,6.37
2019-05-26T04:56:58.421Z,4.00
2019-05-26T04:59:29.385Z,3.30
2019-05-26T05:02:00.948Z,4.30
2019-05-26T05:04:32.565Z,7.40
2019-05-26T05:07:03.537Z,5.43
2019-05-26T05:09:34.818Z,7.87
2019-05-26T05:12:05.816Z,6.87
2019-05-26T05:14:36.773Z,4.37
2019-05-26T05:17:08.004Z,10.27
2019-05-26T05:19:38.950Z,9.13
2019-05-26T05:22:09.919Z,8.70
2019-05-26T05:24:40.878Z,6.80
2019-05-26T05:27:11.895Z,5.33
2019-05-26T05:29:42.861Z,5.63
2019-05-26T05:32:13.852Z,6.80
2019-05-26T05:34:46.422Z,9.67
2019-05-26T05:37:17.666Z,8.03
2019-05-26T05:39:48.876Z,8.80
2019-05-26T05:42:19.884Z,8.30
2019-05-26T05:44:51.148Z,8.23
2019-05-26T05:47:22.649Z,5.60
2019-05-26T05:49:53.596Z,10.30
2019-05-26T05:52:24.588Z,10.67
2019-05-26T05:54:55.874Z,7.97
2019-05-26T05:57:27.186Z,10.73
2019-05-26T05:59:58.605Z,8.93
2019-05-26T06:02:29.898Z,8.70
2019-05-26T06:05:01.775Z,10.77
2019-05-26T06:07:33.213Z,8.17
2019-05-26T06:10:05.655Z,12.17
2019-05-26T06:12:36.769Z,9.90
2019-05-26T06:15:09.610Z,10.23
2019-05-26T06:17:40.650Z,8.40
2019-05-26T06:20:12.336Z,9.60
2019-05-26T06:22:43.724Z,13.60
2019-05-26T06:25:15.405Z,8.50
2019-05-26T06:27:46.904Z,7.20
2019-05-26T06:30:18.330Z,7.20
2019-05-26T06:32:49.381Z,7.72
2019-05-26T06:35:20.536Z,10.53
2019-05-26T06:37:51.506Z,8.57
2019-05-26T06:40:22.600Z,12.53
2019-05-26T06:42:53.618Z,10.17
2019-05-26T06:45:24.677Z,12.43
2019-05-26T06:47:55.834Z,5.87
2019-05-26T06:50:27.176Z,6.63
2019-05-26T06:52:59.346Z,12.17
2019-05-26T06:55:30.481Z,7.00
2019-05-26T06:58:01.468Z,19.07
2019-05-26T07:00:33.049Z,12.05
2019-05-26T07:03:04.088Z,8.17
2019-05-26T07:05:35.093Z,9.13
2019-05-26T07:08:06.377Z,7.20
2019-05-26T07:10:37.447Z,8.50
2019-05-26T07:13:08.685Z,6.07
2019-05-26T07:15:39.958Z,7.60
2019-05-26T07:18:11.171Z,6.03
2019-05-26T07:20:42.844Z,9.50
2019-05-26T07:23:14.359Z,8.37
2019-05-26T07:25:46.230Z,10.90
2019-05-26T07:28:17.251Z,8.33
2019-05-26T07:30:48.556Z,8.63
2019-05-26T07:33:19.690Z,6.10
2019-05-26T07:35:50.886Z,10.10
2019-05-26T07:38:21.986Z,12.03
2019-05-26T07:40:53.188Z,9.87
2019-05-26T07:43:27.979Z,10.97
2019-05-26T07:45:58.342Z,12.27
2019-05-26T07:48:29.316Z,12.80
2019-05-26T07:51:00.511Z,11.50
2019-05-26T07:53:31.711Z,12.80
2019-05-26T07:56:03.691Z,10.40
2019-05-26T07:58:34.965Z,14.30
2019-05-26T08:01:06.442Z,15.13
2019-05-26T08:03:37.381Z,15.77
2019-05-26T08:06:08.406Z,12.67
2019-05-26T08:08:39.394Z,20.68
2019-05-26T08:11:10.609Z,13.45
2019-05-26T08:13:41.594Z,17.57
2019-05-26T08:16:12.996Z,13.33
2019-05-26T08:18:44.041Z,16.30
2019-05-26T08:21:15.143Z,17.73
2019-05-26T08:23:46.090Z,20.80
2019-05-26T08:26:17.651Z,20.27
2019-05-26T08:28:48.602Z,19.07
2019-05-26T08:31:19.707Z,20.63
2019-05-26T08:33:51.969Z,20.92
2019-05-26T08:36:23.024Z,18.10
2019-05-26T08:38:55.045Z,18.70
2019-05-26T08:41:26.958Z,16.87
2019-05-26T08:43:57.962Z,18.83
2019-05-26T08:46:28.985Z,22.70
2019-05-26T08:49:00.020Z,20.20
2019-05-26T08:51:31.562Z,21.73
2019-05-26T08:54:02.597Z,23.10
2019-05-26T08:56:34.647Z,17.10
2019-05-26T08:59:05.688Z,18.30
2019-05-26T09:01:36.638Z,21.13
2019-05-26T09:04:07.741Z,18.60
2019-05-26T09:06:38.710Z,19.03
2019-05-26T09:09:09.716Z,19.43
2019-05-26T09:11:40.765Z,21.00
2019-05-26T09:14:11.708Z,18.97
2019-05-26T09:16:42.992Z,14.93
2019-05-26T09:19:14.677Z,14.63
2019-05-26T09:21:46.994Z,11.90
2019-05-26T09:24:18.072Z,14.53
2019-05-26T09:26:49.511Z,17.07
2019-05-26T09:29:20.803Z,12.03
2019-05-26T09:31:51.980Z,12.33
2019-05-26T09:34:23.012Z,12.33
2019-05-26T09:36:56.884Z,12.97
2019-05-26T09:39:27.691Z,12.30
2019-05-26T09:41:58.688Z,13.90
2019-05-26T09:44:29.823Z,11.17
2019-05-26T09:47:00.762Z,13.50
2019-05-26T09:49:31.916Z,14.40
2019-05-26T09:52:03.120Z,12.37
2019-05-26T09:54:34.198Z,12.43
2019-05-26T09:57:05.757Z,12.37
2019-05-26T09:59:37.033Z,9.07
2019-05-26T10:02:08.307Z,9.37
2019-05-26T10:04:39.293Z,10.50
2019-05-26T10:07:13.469Z,7.33
2019-05-26T10:09:43.274Z,9.50
2019-05-26T10:12:14.698Z,10.17
2019-05-26T10:14:47.865Z,8.60
2019-05-26T10:17:23.656Z,6.08
2019-05-26T10:19:55.446Z,9.83
2019-05-26T10:22:26.729Z,7.53
2019-05-26T10:24:57.802Z,6.23
2019-05-26T10:27:28.742Z,10.80
2019-05-26T10:30:01.241Z,6.20
2019-05-26T10:32:32.273Z,4.83
2019-05-26T10:35:03.604Z,5.43
2019-05-26T10:37:34.766Z,5.60
2019-05-26T10:40:07.795Z,3.95
2019-05-26T10:42:39.089Z,6.57
2019-05-26T10:45:10.641Z,7.13
2019-05-26T10:47:41.717Z,5.67
2019-05-26T10:50:13.443Z,7.60
2019-05-26T10:52:44.743Z,7.60
2019-05-26T10:55:15.865Z,3.05
2019-05-26T10:57:46.964Z,11.23
2019-05-26T11:00:18.725Z,6.00
2019-05-26T11:02:50.185Z,6.97
2019-05-26T11:05:21.251Z,7.87
2019-05-26T11:07:52.238Z,7.72
2019-05-26T11:10:23.714Z,5.53
2019-05-26T11:12:54.717Z,4.12
2019-05-26T11:15:25.701Z,6.27
2019-05-26T11:17:56.647Z,7.43
2019-05-26T11:20:27.922Z,4.90
2019-05-26T11:22:58.966Z,12.43
2019-05-26T11:25:30.922Z,3.03
2019-05-26T11:28:01.924Z,4.43
2019-05-26T11:30:34.296Z,5.43
2019-05-26T11:33:05.709Z,5.73
2019-05-26T11:35:37.330Z,5.93
2019-05-26T11:38:08.377Z,5.30
2019-05-26T11:40:39.626Z,4.37
2019-05-26T11:43:16.730Z,7.40
2019-05-26T11:45:43.935Z,7.27
2019-05-26T11:48:14.960Z,6.20
2019-05-26T11:50:45.919Z,5.72
2019-05-26T11:53:17.148Z,3.93
2019-05-26T11:55:48.142Z,6.08
2019-05-26T11:58:19.259Z,6.50
2019-05-26T12:00:50.216Z,5.53
2019-05-26T12:03:21.884Z,6.83
2019-05-26T12:05:52.969Z,2.93
2019-05-26T12:08:24.277Z,4.40
2019-05-26T12:10:58.416Z,7.17
2019-05-26T12:13:28.238Z,4.67
2019-05-26T12:15:59.253Z,8.87
2019-05-26T12:18:30.426Z,6.07
2019-05-26T12:21:01.464Z,6.70
2019-05-26T12:23:32.878Z,6.57
2019-05-26T12:26:04.190Z,5.67
2019-05-26T12:28:35.775Z,3.57
2019-05-26T12:31:07.317Z,7.23
2019-05-26T12:33:38.465Z,4.20
2019-05-26T12:36:09.756Z,4.10
2019-05-26T12:38:53.635Z,4.60
2019-05-26T12:41:24.610Z,5.10
2019-05-26T12:43:55.616Z,3.23
2019-05-26T12:46:26.619Z,6.93
2019-05-26T12:48:57.717Z,7.87
2019-05-26T12:51:28.698Z,4.87
2019-05-26T12:53:59.702Z,4.83
2019-05-26T12:56:30.720Z,3.20
2019-05-26T12:59:01.707Z,2.67
2019-05-26T13:01:32.863Z,3.70
2019-05-26T13:04:04.167Z,3.87
2019-05-26T13:06:35.148Z,4.77
2019-05-26T13:09:09.163Z,2.87
2019-05-26T13:11:40.415Z,5.93
2019-05-26T13:14:12.718Z,2.27
2019-05-26T13:16:43.952Z,2.47
2019-05-26T13:19:16.141Z,3.37
2019-05-26T13:21:47.209Z,2.43
2019-05-26T13:24:18.765Z,4.10
2019-05-26T13:26:49.807Z,4.20
2019-05-26T13:29:25.522Z,2.20
2019-05-26T13:31:55.195Z,2.40
2019-05-26T13:34:27.125Z,3.70
2019-05-26T13:36:58.464Z,2.20
2019-05-26T13:39:29.444Z,3.37
2019-05-26T13:42:00.447Z,3.27
2019-05-26T13:44:32.504Z,4.80
2019-05-26T13:47:03.474Z,1.70
2019-05-26T13:49:34.691Z,3.67
2019-05-26T13:52:05.767Z,7.70
2019-05-26T13:54:36.737Z,4.73
2019-05-26T13:57:07.795Z,5.23
2019-05-26T13:59:39.949Z,3.60
2019-05-26T14:02:11.236Z,2.07
2019-05-26T14:04:42.343Z,3.60
2019-05-26T14:07:13.557Z,2.30
2019-05-26T14:09:44.659Z,3.77
2019-05-26T14:12:15.763Z,2.67
2019-05-26T14:14:46.992Z,2.90
2019-05-26T14:17:18.037Z,2.93
2019-05-26T14:19:49.277Z,4.77
2019-05-26T14:22:20.361Z,5.40
2019-05-26T14:24:54.163Z,1.63
2019-05-26T14:27:24.355Z,2.23
2019-05-26T14:29:56.194Z,2.70
2019-05-26T14:32:27.518Z,4.97
2019-05-26T14:34:58.480Z,8.27
2019-05-26T14:37:29.586Z,1.73
2019-05-26T14:40:00.555Z,1.73
2019-05-26T14:42:32.253Z,5.40
2019-05-26T14:45:04.332Z,6.47
2019-05-26T14:47:35.978Z,1.20
2019-05-26T14:50:07.463Z,4.17
2019-05-26T14:52:38.683Z,2.70
2019-05-26T14:55:09.890Z,2.00
2019-05-26T14:57:40.844Z,1.40
2019-05-26T15:00:12.297Z,1.77
2019-05-26T15:02:43.661Z,2.27
2019-05-26T15:05:15.775Z,1.30
2019-05-26T15:07:47.161Z,3.10
2019-05-26T15:10:18.522Z,4.53
2019-05-26T15:12:49.652Z,1.35
2019-05-26T15:15:20.921Z,2.93
2019-05-26T15:17:52.515Z,4.53
2019-05-26T15:20:23.469Z,2.35
2019-05-26T15:22:54.968Z,1.15
2019-05-26T15:25:26.490Z,2.70
2019-05-26T15:27:58.169Z,2.97
2019-05-26T15:30:29.570Z,1.93
2019-05-26T15:33:01.052Z,2.53
2019-05-26T15:35:32.419Z,2.60
2019-05-26T15:38:03.494Z,2.87
2019-05-26T15:40:34.728Z,2.57
2019-05-26T15:43:05.976Z,3.80
2019-05-26T15:45:42.158Z,5.50
2019-05-26T15:48:13.698Z,3.13
2019-05-26T15:53:35.041Z,3.07
2019-05-26T15:56:06.018Z,1.03
2019-05-26T15:58:37.295Z,1.00
2019-05-26T16:01:08.615Z,1.30
2019-05-26T16:03:39.917Z,2.13
2019-05-26T16:06:12.348Z,2.80
2019-05-26T16:08:43.359Z,2.00
2019-05-26T16:11:14.621Z,1.13
2019-05-26T16:13:45.646Z,2.93
2019-05-26T16:16:16.692Z,1.60
2019-05-26T16:18:47.915Z,2.43
2019-05-26T16:21:27.989Z,2.37
2019-05-26T16:23:52.310Z,2.20
2019-05-26T16:26:23.431Z,1.60
2019-05-26T16:29:01.562Z,1.37
2019-05-26T16:31:32.863Z,1.50
2019-05-26T16:34:03.921Z,4.50
2019-05-26T16:36:34.922Z,2.33
2019-05-26T16:39:07.791Z,1.23
2019-05-26T16:41:38.744Z,0.90
2019-05-26T16:44:09.796Z,1.70
2019-05-26T16:46:55.413Z,1.37
2019-05-26T16:49:14.181Z,1.37
2019-05-26T16:51:45.262Z,1.47
2019-05-26T16:54:16.203Z,1.00
2019-05-26T16:56:47.237Z,2.03
2019-05-26T16:59:18.275Z,2.77
2019-05-26T17:01:49.922Z,3.63
2019-05-26T17:04:21.099Z,3.43
2019-05-26T17:06:52.383Z,1.03
2019-05-26T17:09:23.661Z,3.12
2019-05-26T17:11:54.698Z,2.63
2019-05-26T17:14:26.132Z,0.88
2019-05-26T17:17:13.424Z,9.97
2019-05-26T17:19:32.132Z,0.93
2019-05-26T17:22:09.873Z,2.13
2019-05-26T17:24:41.125Z,3.53
2019-05-26T17:27:12.119Z,3.20
2019-05-26T17:29:43.420Z,1.10
2019-05-26T17:32:14.610Z,1.50
2019-05-26T17:34:46.003Z,1.40
2019-05-26T17:37:16.990Z,0.90
2019-05-26T17:39:48.163Z,0.97
2019-05-26T17:42:19.167Z,1.80
2019-05-26T17:44:50.502Z,2.47
2019-05-26T17:47:30.003Z,2.77
2019-05-26T17:49:54.770Z,1.50
2019-05-26T17:52:27.316Z,1.00
2019-05-26T17:54:58.398Z,3.60
2019-05-26T17:57:30.974Z,0.73
2019-05-26T18:00:02.004Z,3.30
2019-05-26T18:02:35.945Z,1.43
2019-05-26T18:05:10.541Z,4.63
2019-05-26T18:07:44.733Z,1.82
2019-05-26T18:10:16.211Z,1.67
2019-05-26T18:12:47.392Z,1.00
2019-05-26T18:15:19.038Z,3.07
2019-05-26T18:17:50.092Z,3.13
2019-05-26T18:20:21.579Z,0.93
2019-05-26T18:22:52.738Z,0.93
2019-05-26T18:25:24.939Z,1.37
2019-05-26T18:27:56.083Z,2.53
2019-05-26T18:30:27.894Z,1.42
2019-05-26T18:32:59.090Z,2.93
2019-05-26T18:35:30.162Z,0.80
2019-05-26T18:38:01.609Z,1.40
2019-05-26T18:40:32.715Z,2.00
2019-05-26T18:43:03.868Z,2.60
2019-05-26T18:45:35.290Z,1.00
2019-05-26T18:48:06.332Z,3.10
2019-05-26T18:51:03.408Z,5.00
2019-05-26T18:53:36.404Z,3.57
2019-05-26T18:56:07.693Z,3.40
2019-05-26T18:58:38.740Z,1.73
2019-05-26T19:01:10.171Z,1.00
2019-05-26T19:03:41.204Z,1.47
2019-05-26T19:06:12.275Z,2.73
2019-05-26T19:08:43.421Z,4.30
2019-05-26T19:11:15.785Z,1.03
2019-05-26T19:13:47.202Z,1.37
2019-05-26T19:16:18.566Z,1.03
2019-05-26T19:18:49.862Z,3.02
2019-05-26T19:21:21.610Z,1.37
2019-05-26T19:23:52.688Z,3.40
2019-05-26T19:26:23.791Z,2.50
2019-05-26T19:28:55.429Z,5.97
2019-05-26T19:31:30.133Z,4.15
2019-05-26T19:34:01.792Z,2.70
2019-05-26T19:36:33.091Z,3.93
2019-05-26T19:39:05.628Z,2.77
2019-05-26T19:41:39.107Z,1.27
2019-05-26T19:44:10.794Z,0.73
2019-05-26T19:46:42.085Z,1.67
2019-05-26T19:49:13.305Z,1.63
2019-05-26T19:51:45.009Z,2.93
2019-05-26T19:54:15.954Z,3.90
2019-05-26T19:56:48.504Z,0.90
2019-05-26T19:59:19.677Z,1.20
2019-05-26T20:01:50.669Z,1.63
2019-05-26T20:04:22.644Z,1.37
2019-05-26T20:06:53.845Z,6.17
2019-05-26T20:09:25.150Z,1.70
2019-05-26T20:11:56.247Z,1.13
2019-05-26T20:17:16.967Z,2.93
2019-05-26T20:19:48.424Z,2.57
2019-05-26T20:22:19.776Z,1.20
2019-05-26T20:24:50.873Z,1.40
2019-05-26T20:27:22.139Z,1.50
2019-05-26T20:29:53.241Z,2.40
2019-05-26T20:32:24.312Z,1.10
2019-05-26T20:34:55.797Z,2.00
2019-05-26T20:37:27.145Z,1.80
2019-05-26T20:39:58.169Z,1.63
2019-05-26T20:42:29.241Z,4.10
2019-05-26T20:45:00.239Z,1.17
2019-05-26T20:47:31.276Z,3.37
2019-05-26T20:50:02.376Z,3.27
2019-05-26T20:52:33.491Z,3.43
2019-05-26T20:55:04.977Z,4.90
2019-05-26T20:57:36.212Z,1.23
2019-05-26T21:00:09.011Z,3.47
2019-05-26T21:02:40.167Z,1.23
2019-05-26T21:05:11.239Z,1.40
2019-05-26T21:07:42.461Z,1.13
2019-05-26T21:10:13.508Z,1.70
2019-05-26T21:12:44.607Z,2.70
2019-05-26T21:15:15.949Z,3.03
2019-05-26T21:17:47.631Z,1.20
2019-05-26T21:20:18.976Z,2.40
2019-05-26T21:22:50.067Z,1.87
2019-05-26T21:25:21.436Z,1.33
2019-05-26T21:27:52.954Z,14.00
2019-05-26T21:30:23.968Z,1.17
2019-05-26T21:32:56.284Z,2.10
2019-05-26T21:35:27.806Z,2.67
2019-05-26T21:37:59.024Z,3.87
2019-05-26T21:40:30.084Z,1.75
2019-05-26T21:43:01.349Z,3.23
2019-05-26T21:45:32.630Z,1.17
2019-05-26T21:48:03.693Z,1.37
2019-05-26T21:50:34.911Z,1.03
2019-05-26T21:53:05.920Z,1.40
2019-05-26T21:55:36.993Z,1.20
2019-05-26T21:58:08.030Z,1.27
2019-05-26T22:00:45.022Z,1.07
2019-05-26T22:03:17.663Z,2.57
2019-05-26T22:05:49.075Z,1.90
2019-05-26T22:08:20.378Z,1.63
2019-05-26T22:10:51.671Z,2.47
2019-05-26T22:13:22.707Z,5.70
2019-05-26T22:15:53.694Z,6.93
2019-05-26T22:18:24.897Z,7.15
2019-05-26T22:20:55.979Z,3.53
2019-05-26T22:23:27.411Z,1.50
2019-05-26T22:25:59.005Z,1.90
2019-05-26T22:28:29.991Z,3.07
2019-05-26T22:31:01.051Z,1.40
2019-05-26T22:36:06.820Z,1.60
2019-05-26T22:38:38.105Z,1.83
2019-05-26T22:41:09.347Z,2.10
2019-05-26T22:43:42.499Z,1.40
2019-05-26T22:46:13.819Z,1.47
2019-05-26T22:48:45.641Z,3.73
2019-05-26T22:51:16.587Z,3.00
2019-05-26T22:53:47.603Z,2.03
2019-05-26T22:56:20.400Z,3.77
2019-05-26T22:58:51.614Z,1.67
2019-05-26T23:01:22.888Z,1.77
2019-05-26T23:03:53.851Z,2.00
2019-05-26T23:06:24.801Z,1.45
2019-05-26T23:08:55.898Z,2.30
2019-05-26T23:11:27.428Z,2.57
2019-05-26T23:13:58.449Z,1.50
2019-05-26T23:16:29.704Z,2.80
2019-05-26T23:19:00.724Z,2.17
2019-05-26T23:21:32.293Z,4.27
2019-05-26T23:24:03.454Z,2.00
2019-05-26T23:26:34.466Z,3.43
2019-05-26T23:29:06.045Z,4.57
2019-05-26T23:31:37.468Z,3.37
2019-05-26T23:34:09.016Z,2.13
2019-05-26T23:36:40.044Z,1.50
2019-05-26T23:39:11.090Z,1.63
2019-05-26T23:41:42.005Z,2.53
2019-05-26T23:44:13.719Z,1.77
2019-05-26T23:46:45.148Z,3.23
2019-05-26T23:49:16.524Z,4.97
2019-05-26T23:51:47.471Z,2.33
2019-05-26T23:54:19.303Z,1.87
2019-05-26T23:56:51.244Z,6.70
2019-05-26T23:59:22.379Z,1.90
